createdAt,value
2018-03-30T00:00:03.218Z,66.80
2018-03-30T00:02:30.066Z,67.00
2018-03-30T00:04:56.912Z,67.10
2018-03-30T00:07:23.866Z,67.50
2018-03-30T00:09:55.820Z,67.70
2018-03-30T00:12:22.597Z,67.80
2018-03-30T00:14:50.330Z,69.10
2018-03-30T00:17:17.377Z,68.20
2018-03-30T00:19:44.328Z,68.30
2018-03-30T00:22:11.172Z,68.60
2018-03-30T00:24:38.226Z,68.70
2018-03-30T00:27:05.268Z,68.90
2018-03-30T00:29:32.116Z,69.00
2018-03-30T00:31:59.168Z,68.90
2018-03-30T00:34:26.119Z,69.00
2018-03-30T00:36:53.056Z,69.10
2018-03-30T00:39:20.108Z,69.20
2018-03-30T00:41:47.164Z,69.20
2018-03-30T00:44:14.207Z,69.30
2018-03-30T00:46:41.254Z,69.40
2018-03-30T00:49:08.312Z,69.40
2018-03-30T00:51:35.132Z,69.20
2018-03-30T00:54:02.095Z,69.20
2018-03-30T00:56:28.939Z,68.90
2018-03-30T00:58:56.304Z,68.80
2018-03-30T01:01:23.290Z,68.80
2018-03-30T01:03:50.395Z,69.10
2018-03-30T01:06:17.454Z,69.00
2018-03-30T01:08:45.220Z,69.30
2018-03-30T01:11:12.268Z,69.30
2018-03-30T01:13:39.312Z,69.30
2018-03-30T01:16:06.369Z,69.10
2018-03-30T01:18:33.412Z,69.20
2018-03-30T01:21:00.459Z,69.30
2018-03-30T01:23:27.517Z,69.50
2018-03-30T01:25:54.563Z,69.50
2018-03-30T01:28:21.605Z,69.50
2018-03-30T01:30:48.664Z,69.50
2018-03-30T01:33:15.602Z,69.50
2018-03-30T01:35:42.558Z,69.40
2018-03-30T01:38:09.608Z,69.30
2018-03-30T01:40:36.649Z,69.50
2018-03-30T01:43:03.709Z,69.50
2018-03-30T01:45:30.750Z,69.70
2018-03-30T01:47:57.514Z,69.90
2018-03-30T01:50:25.257Z,70.10
2018-03-30T01:52:52.206Z,70.10
2018-03-30T01:55:19.250Z,70.10
2018-03-30T01:57:46.303Z,70.40
2018-03-30T02:00:13.253Z,70.20
2018-03-30T02:02:40.311Z,70.10
2018-03-30T02:05:07.247Z,70.10
2018-03-30T02:07:34.294Z,70.00
2018-03-30T02:10:01.353Z,69.70
2018-03-30T02:12:28.187Z,69.80
2018-03-30T02:14:55.238Z,69.80
2018-03-30T02:17:22.194Z,70.10
2018-03-30T02:19:49.130Z,70.30
2018-03-30T02:22:16.180Z,70.10
2018-03-30T02:24:43.137Z,69.90
2018-03-30T02:27:10.180Z,70.10
2018-03-30T02:29:37.123Z,70.50
2018-03-30T02:32:04.175Z,70.50
2018-03-30T02:34:31.232Z,70.40
2018-03-30T02:36:58.046Z,70.20
2018-03-30T02:39:25.027Z,70.20
2018-03-30T02:41:52.067Z,70.20
2018-03-30T02:44:19.027Z,70.30
2018-03-30T02:46:46.780Z,70.60
2018-03-30T02:49:13.726Z,70.30
2018-03-30T02:51:40.551Z,70.60
2018-03-30T02:54:07.629Z,70.40
2018-03-30T02:56:34.575Z,70.30
2018-03-30T02:59:01.627Z,70.40
2018-03-30T03:01:29.288Z,70.50
2018-03-30T03:03:57.643Z,70.50
2018-03-30T03:06:24.478Z,70.60
2018-03-30T03:08:51.552Z,70.60
2018-03-30T03:11:18.604Z,70.60
2018-03-30T03:13:45.344Z,70.40
2018-03-30T03:16:12.294Z,70.30
2018-03-30T03:18:39.350Z,70.30
2018-03-30T03:21:06.297Z,70.60
2018-03-30T03:23:33.247Z,70.70
2018-03-30T03:26:00.294Z,70.80
2018-03-30T03:28:27.233Z,70.80
2018-03-30T03:30:54.293Z,70.80
2018-03-30T03:33:21.333Z,70.80
2018-03-30T03:35:48.178Z,70.90
2018-03-30T03:38:15.140Z,71.10
2018-03-30T03:40:42.789Z,71.20
2018-03-30T03:43:09.742Z,71.20
2018-03-30T03:45:36.578Z,71.10
2018-03-30T03:48:03.624Z,70.60
2018-03-30T03:50:30.780Z,69.90
2018-03-30T03:52:57.837Z,69.30
2018-03-30T03:55:24.879Z,69.20
2018-03-30T03:57:51.936Z,69.10
2018-03-30T04:00:19.486Z,69.10
2018-03-30T04:02:46.445Z,69.20
2018-03-30T04:05:13.279Z,69.00
2018-03-30T04:07:40.205Z,68.70
2018-03-30T04:10:07.172Z,68.70
2018-03-30T04:12:34.122Z,68.30
2018-03-30T04:15:01.067Z,68.40
2018-03-30T04:17:27.871Z,68.60
2018-03-30T04:19:54.970Z,68.40
2018-03-30T04:22:36.773Z,68.50
2018-03-30T04:25:03.707Z,68.70
2018-03-30T04:27:30.871Z,69.20
2018-03-30T04:29:57.802Z,69.30
2018-03-30T04:32:24.616Z,69.40
2018-03-30T04:34:51.603Z,69.90
2018-03-30T04:37:18.437Z,70.00
2018-03-30T04:39:46.214Z,70.10
2018-03-30T04:42:13.154Z,70.00
2018-03-30T04:44:40.012Z,70.00
2018-03-30T04:47:06.957Z,70.10
2018-03-30T04:49:34.008Z,69.50
2018-03-30T04:52:02.373Z,69.30
2018-03-30T04:54:29.431Z,69.20
2018-03-30T04:56:56.284Z,69.50
2018-03-30T04:59:23.324Z,69.90
2018-03-30T05:01:50.089Z,70.00
2018-03-30T05:04:18.541Z,69.50
2018-03-30T05:06:45.490Z,69.40
2018-03-30T05:09:12.382Z,69.40
2018-03-30T05:11:40.005Z,69.40
2018-03-30T05:14:06.946Z,69.30
2018-03-30T05:16:34.024Z,69.30
2018-03-30T05:19:01.871Z,69.70
2018-03-30T05:21:28.921Z,69.60
2018-03-30T05:23:57.206Z,69.90
2018-03-30T05:26:25.676Z,69.70
2018-03-30T05:28:52.781Z,69.70
2018-03-30T05:31:20.368Z,70.10
2018-03-30T05:33:47.336Z,69.90
2018-03-30T05:36:14.392Z,70.10
2018-03-30T05:38:41.229Z,70.20
2018-03-30T05:41:08.287Z,70.40
2018-03-30T05:43:35.328Z,70.60
2018-03-30T05:46:02.385Z,70.90
2018-03-30T05:48:29.441Z,71.10
2018-03-30T05:50:56.414Z,71.30
2018-03-30T05:53:24.038Z,71.20
2018-03-30T05:55:50.984Z,71.20
2018-03-30T05:58:18.031Z,71.30
2018-03-30T06:00:45.288Z,71.30
2018-03-30T06:03:12.236Z,71.20
2018-03-30T06:05:39.285Z,71.40
2018-03-30T06:08:06.250Z,71.50
2018-03-30T06:10:33.998Z,71.90
2018-03-30T06:13:01.057Z,71.90
2018-03-30T06:15:28.096Z,71.70
2018-03-30T06:17:55.046Z,71.70
2018-03-30T06:20:22.305Z,71.80
2018-03-30T06:22:49.345Z,72.10
2018-03-30T06:25:16.189Z,72.30
2018-03-30T06:27:43.139Z,72.20
2018-03-30T06:30:09.960Z,72.30
2018-03-30T06:32:37.033Z,72.50
2018-03-30T06:35:04.084Z,72.60
2018-03-30T06:37:31.132Z,72.70
2018-03-30T06:39:58.076Z,72.50
2018-03-30T06:42:25.135Z,71.80
2018-03-30T06:44:52.074Z,71.90
2018-03-30T06:47:19.132Z,71.90
2018-03-30T06:49:46.893Z,70.50
2018-03-30T06:52:13.838Z,70.40
2018-03-30T06:54:40.783Z,70.40
2018-03-30T06:57:07.844Z,70.50
2018-03-30T06:59:34.788Z,70.30
2018-03-30T07:02:01.729Z,70.00
2018-03-30T07:04:28.783Z,69.60
2018-03-30T07:06:55.825Z,69.60
2018-03-30T07:09:22.774Z,70.00
2018-03-30T07:11:49.920Z,70.40
2018-03-30T07:14:23.341Z,70.70
2018-03-30T07:16:50.958Z,70.60
2018-03-30T07:19:17.945Z,70.50
2018-03-30T07:21:44.878Z,69.90
2018-03-30T07:24:11.831Z,69.90
2018-03-30T07:26:38.879Z,69.60
2018-03-30T07:29:05.844Z,69.40
2018-03-30T07:31:32.675Z,69.60
2018-03-30T07:33:59.728Z,69.50
2018-03-30T07:36:26.478Z,69.10
2018-03-30T07:38:53.409Z,69.10
2018-03-30T07:41:20.466Z,69.50
2018-03-30T07:43:47.402Z,69.30
2018-03-30T07:46:14.248Z,69.30
2018-03-30T07:48:41.204Z,68.90
2018-03-30T07:51:08.243Z,69.10
2018-03-30T07:53:35.293Z,69.10
2018-03-30T07:56:02.245Z,68.90
2018-03-30T07:58:29.187Z,68.90
2018-03-30T08:00:56.247Z,68.90
2018-03-30T08:03:23.289Z,68.70
2018-03-30T08:05:50.339Z,68.60
2018-03-30T08:08:17.287Z,68.60
2018-03-30T08:10:44.101Z,68.80
2018-03-30T08:13:11.076Z,69.00
2018-03-30T08:15:38.021Z,69.10
2018-03-30T08:18:05.080Z,69.00
2018-03-30T08:20:32.131Z,69.10
2018-03-30T08:22:59.198Z,68.90
2018-03-30T08:25:26.938Z,68.90
2018-03-30T08:27:53.996Z,68.80
2018-03-30T08:30:21.035Z,68.90
2018-03-30T08:32:47.882Z,68.80
2018-03-30T08:35:14.931Z,68.70
2018-03-30T08:37:41.981Z,69.10
2018-03-30T08:40:09.036Z,68.80
2018-03-30T08:42:35.754Z,68.60
2018-03-30T08:45:02.834Z,68.40
2018-03-30T08:47:29.871Z,68.40
2018-03-30T08:49:56.927Z,68.30
2018-03-30T08:52:23.864Z,68.40
2018-03-30T08:54:50.924Z,68.40
2018-03-30T08:57:17.973Z,68.60
2018-03-30T08:59:45.022Z,68.80
2018-03-30T09:02:12.101Z,69.30
2018-03-30T09:04:39.807Z,67.30
2018-03-30T09:07:06.877Z,67.30
2018-03-30T09:09:34.732Z,68.00
2018-03-30T09:12:02.573Z,67.30
2018-03-30T09:14:43.381Z,67.30
2018-03-30T09:17:10.334Z,67.80
2018-03-30T09:19:37.384Z,66.90
2018-03-30T09:22:04.440Z,65.40
2018-03-30T09:24:31.280Z,64.00
2018-03-30T09:26:58.226Z,63.30
2018-03-30T09:29:25.308Z,62.00
2018-03-30T09:31:53.041Z,60.20
2018-03-30T09:34:20.101Z,60.10
2018-03-30T09:36:47.146Z,59.10
2018-03-30T09:39:14.085Z,56.90
2018-03-30T09:41:41.134Z,56.40
2018-03-30T09:44:08.183Z,55.70
2018-03-30T09:46:35.244Z,54.50
2018-03-30T09:49:02.179Z,53.00
2018-03-30T09:51:29.233Z,52.60
2018-03-30T09:53:57.508Z,51.50
2018-03-30T09:56:24.560Z,51.80
2018-03-30T09:58:51.607Z,52.10
2018-03-30T10:01:18.665Z,54.20
2018-03-30T10:03:48.583Z,53.20
2018-03-30T10:06:15.623Z,52.30
2018-03-30T10:08:42.681Z,53.20
2018-03-30T10:11:09.721Z,53.10
2018-03-30T10:13:36.771Z,53.20
2018-03-30T10:16:04.024Z,52.50
2018-03-30T10:18:31.086Z,53.30
2018-03-30T10:20:58.123Z,53.90
2018-03-30T10:23:25.175Z,54.10
2018-03-30T10:25:52.029Z,53.90
2018-03-30T10:28:19.076Z,54.20
2018-03-30T10:30:46.025Z,53.90
2018-03-30T10:33:13.072Z,53.10
2018-03-30T10:35:40.112Z,53.20
2018-03-30T10:38:06.958Z,52.40
2018-03-30T10:40:33.919Z,53.10
2018-03-30T10:43:01.670Z,53.20
2018-03-30T10:45:29.030Z,53.20
2018-03-30T10:47:55.872Z,53.20
2018-03-30T10:50:22.902Z,54.20
2018-03-30T10:52:49.869Z,54.70
2018-03-30T10:55:16.820Z,54.90
2018-03-30T10:57:43.874Z,54.90
2018-03-30T11:00:10.933Z,55.00
2018-03-30T11:02:37.864Z,55.40
2018-03-30T11:05:04.807Z,55.60
2018-03-30T11:07:31.634Z,56.00
2018-03-30T11:09:58.609Z,56.20
2018-03-30T11:12:25.652Z,55.90
2018-03-30T11:15:26.317Z,55.60
2018-03-30T11:17:54.062Z,54.80
2018-03-30T11:20:21.104Z,54.20
2018-03-30T11:22:48.060Z,54.40
2018-03-30T11:25:15.005Z,54.80
2018-03-30T11:27:41.841Z,54.80
2018-03-30T11:30:08.899Z,54.70
2018-03-30T11:32:35.812Z,54.60
2018-03-30T11:35:02.727Z,54.10
2018-03-30T11:37:29.844Z,54.20
2018-03-30T11:39:56.885Z,54.50
2018-03-30T11:42:23.710Z,54.70
2018-03-30T11:44:50.797Z,54.80
2018-03-30T11:47:17.844Z,54.80
2018-03-30T11:49:44.898Z,54.60
2018-03-30T11:52:11.870Z,53.70
2018-03-30T11:54:39.717Z,51.90
2018-03-30T12:00:04.981Z,51.80
2018-03-30T12:02:50.242Z,51.70
2018-03-30T12:05:28.152Z,51.00
2018-03-30T12:08:01.250Z,50.00
2018-03-30T12:10:42.052Z,50.00
2018-03-30T12:13:20.085Z,50.10
2018-03-30T12:18:47.846Z,48.90
2018-03-30T12:21:15.574Z,47.50
2018-03-30T12:23:43.746Z,48.60
2018-03-30T12:26:11.701Z,48.60
2018-03-30T12:28:39.703Z,48.80
2018-03-30T12:31:07.651Z,48.80
2018-03-30T12:33:35.466Z,47.60
2018-03-30T12:36:03.803Z,48.00
2018-03-30T12:38:31.968Z,48.10
2018-03-30T12:40:59.976Z,48.30
2018-03-30T12:43:27.306Z,48.30
2018-03-30T12:45:55.269Z,48.30
2018-03-30T12:48:22.733Z,48.40
2018-03-30T12:50:51.015Z,48.10
2018-03-30T12:53:19.506Z,48.60
2018-03-30T12:55:47.768Z,48.50
2018-03-30T12:58:15.950Z,48.50
2018-03-30T13:00:43.724Z,48.50
2018-03-30T13:03:12.035Z,47.30
2018-03-30T13:05:39.905Z,48.20
2018-03-30T13:08:07.015Z,48.20
2018-03-30T13:10:34.830Z,49.20
2018-03-30T13:13:02.064Z,48.60
2018-03-30T13:16:01.968Z,48.60
2018-03-30T13:18:29.895Z,48.50
2018-03-30T13:20:56.873Z,48.50
2018-03-30T13:23:24.778Z,48.20
2018-03-30T13:25:51.835Z,48.20
2018-03-30T13:28:18.785Z,48.00
2018-03-30T13:30:45.958Z,47.80
2018-03-30T13:33:12.961Z,48.20
2018-03-30T13:35:39.988Z,48.60
2018-03-30T13:38:07.847Z,48.60
2018-03-30T13:40:35.729Z,49.00
2018-03-30T13:43:03.513Z,48.70
2018-03-30T13:45:30.484Z,48.50
2018-03-30T13:47:57.896Z,47.80
2018-03-30T13:50:26.363Z,47.90
2018-03-30T13:52:59.353Z,47.90
2018-03-30T13:55:32.871Z,48.20
2018-03-30T13:58:30.233Z,48.40
2018-03-30T14:00:59.943Z,48.40
2018-03-30T14:03:34.573Z,48.30
2018-03-30T14:06:26.207Z,48.70
2018-03-30T14:08:55.123Z,48.60
2018-03-30T14:11:30.035Z,48.60
2018-03-30T14:13:58.936Z,48.30
2018-03-30T14:16:26.950Z,48.20
2018-03-30T14:19:05.244Z,48.30
2018-03-30T14:21:37.300Z,48.00
2018-03-30T14:24:08.380Z,48.20
2018-03-30T14:26:48.429Z,48.30
2018-03-30T14:29:26.621Z,48.80
2018-03-30T14:32:05.472Z,48.70
2018-03-30T14:34:35.552Z,48.70
2018-03-30T14:37:09.607Z,47.90
2018-03-30T14:42:32.411Z,47.50
2018-03-30T14:45:07.343Z,47.60
2018-03-30T14:47:36.338Z,48.70
2018-03-30T14:50:16.613Z,48.10
2018-03-30T14:52:50.105Z,48.20
2018-03-30T14:55:20.001Z,47.60
2018-03-30T14:57:54.132Z,47.50
2018-03-30T15:00:24.856Z,47.80
2018-03-30T15:02:56.116Z,47.80
2018-03-30T15:05:47.033Z,47.80
2018-03-30T15:08:33.782Z,47.20
2018-03-30T15:11:19.322Z,47.10
2018-03-30T15:13:50.279Z,47.90
2018-03-30T15:19:36.383Z,48.40
2018-03-30T15:22:08.283Z,48.90
2018-03-30T15:24:37.537Z,49.20
2018-03-30T15:27:09.809Z,49.30
2018-03-30T15:29:43.831Z,49.10
2018-03-30T15:35:12.148Z,48.90
2018-03-30T15:37:40.657Z,49.00
2018-03-30T15:40:14.852Z,47.70
2018-03-30T15:42:43.811Z,47.40
2018-03-30T15:45:11.885Z,47.40
2018-03-30T15:47:39.255Z,47.40
2018-03-30T15:50:07.232Z,47.10
2018-03-30T15:52:36.640Z,46.90
2018-03-30T15:55:05.117Z,47.10
2018-03-30T15:57:33.074Z,47.70
2018-03-30T16:00:08.115Z,47.90
2018-03-30T16:02:36.406Z,47.70
2018-03-30T16:05:04.679Z,48.00
2018-03-30T16:07:32.553Z,48.30
2018-03-30T16:12:57.810Z,48.20
2018-03-30T16:18:55.049Z,48.50
2018-03-30T16:21:22.118Z,48.50
2018-03-30T16:23:50.195Z,49.00
2018-03-30T16:26:18.562Z,49.30
2018-03-30T16:28:46.112Z,49.10
2018-03-30T16:31:13.168Z,49.10
2018-03-30T16:33:40.833Z,49.70
2018-03-30T16:36:08.804Z,50.20
2018-03-30T16:38:36.410Z,49.50
2018-03-30T16:41:04.244Z,49.30
2018-03-30T16:43:31.861Z,49.30
2018-03-30T16:45:58.714Z,49.20
2018-03-30T16:48:26.831Z,48.80
2018-03-30T16:50:54.897Z,48.50
2018-03-30T16:53:22.581Z,48.70
2018-03-30T16:55:49.428Z,48.70
2018-03-30T16:58:16.197Z,48.70
2018-03-30T17:00:43.060Z,48.90
2018-03-30T17:03:09.918Z,49.00
2018-03-30T17:05:36.746Z,49.10
2018-03-30T17:08:03.591Z,49.20
2018-03-30T17:10:30.749Z,49.10
2018-03-30T17:12:57.588Z,49.40
2018-03-30T17:15:51.857Z,49.70
2018-03-30T17:18:18.920Z,49.80
2018-03-30T17:20:45.847Z,50.30
2018-03-30T17:23:12.715Z,50.30
2018-03-30T17:25:39.577Z,50.40
2018-03-30T17:28:07.384Z,50.40
2018-03-30T17:30:34.177Z,51.10
2018-03-30T17:33:01.061Z,51.20
2018-03-30T17:35:29.341Z,52.70
2018-03-30T17:37:57.937Z,52.10
2018-03-30T17:40:24.967Z,52.10
2018-03-30T17:42:52.691Z,52.60
2018-03-30T17:45:19.533Z,52.50
2018-03-30T17:47:46.460Z,52.40
2018-03-30T17:50:13.341Z,52.10
2018-03-30T17:52:40.155Z,52.10
2018-03-30T17:55:06.996Z,51.60
2018-03-30T17:57:33.864Z,51.40
2018-03-30T18:00:00.675Z,51.40
2018-03-30T18:02:27.609Z,51.80
2018-03-30T18:04:54.455Z,51.80
2018-03-30T18:07:21.267Z,51.00
2018-03-30T18:09:48.909Z,50.80
2018-03-30T18:12:15.844Z,50.50
2018-03-30T18:14:52.507Z,50.80
2018-03-30T18:17:19.420Z,50.70
2018-03-30T18:19:46.292Z,51.00
2018-03-30T18:22:13.149Z,51.10
2018-03-30T18:24:40.113Z,51.00
2018-03-30T18:27:06.990Z,51.00
2018-03-30T18:29:34.590Z,51.00
2018-03-30T18:32:01.430Z,51.00
2018-03-30T18:34:28.251Z,51.40
2018-03-30T18:36:55.199Z,51.60
2018-03-30T18:39:22.722Z,51.70
2018-03-30T18:41:49.641Z,51.70
2018-03-30T18:44:17.278Z,52.40
2018-03-30T18:46:44.146Z,52.40
2018-03-30T18:49:11.097Z,52.60
2018-03-30T18:51:37.995Z,52.50
2018-03-30T18:54:05.540Z,52.60
2018-03-30T18:56:32.388Z,52.50
2018-03-30T18:58:59.714Z,52.50
2018-03-30T19:01:26.602Z,52.80
2018-03-30T19:03:54.243Z,53.10
2018-03-30T19:06:21.139Z,53.10
2018-03-30T19:08:48.543Z,53.20
2018-03-30T19:11:21.212Z,53.30
2018-03-30T19:13:48.123Z,53.40
2018-03-30T19:19:15.380Z,53.90
2018-03-30T19:21:43.454Z,54.00
2018-03-30T19:24:11.727Z,54.10
2018-03-30T19:26:39.815Z,54.00
2018-03-30T19:29:07.979Z,53.80
2018-03-30T19:31:36.154Z,54.00
2018-03-30T19:34:04.234Z,53.70
2018-03-30T19:36:32.303Z,53.70
2018-03-30T19:39:00.520Z,53.70
2018-03-30T19:44:57.873Z,53.70
2018-03-30T19:47:25.836Z,53.90
2018-03-30T19:49:54.012Z,54.10
2018-03-30T19:52:21.465Z,53.80
2018-03-30T19:54:49.686Z,53.90
2018-03-30T19:57:16.803Z,53.90
2018-03-30T19:59:44.807Z,54.20
2018-03-30T20:02:12.228Z,54.20
2018-03-30T20:04:40.403Z,54.50
2018-03-30T20:07:08.469Z,54.60
2018-03-30T20:09:36.661Z,54.50
2018-03-30T20:12:04.724Z,54.40
2018-03-30T20:14:44.939Z,54.20
2018-03-30T20:20:09.288Z,54.50
2018-03-30T20:22:37.165Z,54.50
2018-03-30T20:25:05.344Z,54.50
2018-03-30T20:28:10.697Z,54.70
2018-03-30T20:30:38.865Z,54.30
2018-03-30T20:33:06.874Z,54.40
2018-03-30T20:35:33.881Z,54.30
2018-03-30T20:38:01.882Z,54.70
2018-03-30T20:40:30.038Z,54.70
2018-03-30T20:42:57.772Z,54.70
2018-03-30T20:45:26.086Z,54.70
2018-03-30T20:47:54.145Z,54.60
2018-03-30T20:50:22.218Z,54.70
2018-03-30T20:52:50.397Z,54.70
2018-03-30T20:55:18.262Z,54.70
2018-03-30T20:57:45.810Z,55.00
2018-03-30T21:00:12.573Z,54.80
2018-03-30T21:02:39.319Z,54.90
2018-03-30T21:05:06.874Z,55.20
2018-03-30T21:07:34.428Z,55.20
2018-03-30T21:10:01.911Z,55.30
2018-03-30T21:12:28.709Z,55.30
2018-03-30T21:15:12.344Z,55.40
2018-03-30T21:23:15.866Z,55.50
2018-03-30T21:25:59.400Z,55.60
2018-03-30T21:28:40.194Z,55.80
2018-03-30T21:39:42.608Z,55.90
2018-03-30T21:42:09.989Z,55.90
2018-03-30T21:44:36.556Z,55.90
2018-03-30T21:47:03.978Z,56.00
2018-03-30T21:49:30.463Z,55.90
2018-03-30T21:51:57.680Z,55.90
2018-03-30T21:54:24.284Z,55.90
2018-03-30T21:56:50.805Z,55.90
2018-03-30T21:59:17.355Z,55.80
2018-03-30T22:01:43.938Z,56.00
2018-03-30T22:04:10.429Z,55.90
2018-03-30T22:06:36.890Z,56.10
2018-03-30T22:09:03.388Z,56.00
2018-03-30T22:11:29.955Z,56.00
2018-03-30T22:13:56.489Z,56.10
2018-03-30T22:16:23.772Z,55.90
2018-03-30T22:18:50.228Z,55.90
2018-03-30T22:21:17.402Z,56.40
2018-03-30T22:23:43.878Z,56.00
2018-03-30T22:26:10.341Z,56.00
2018-03-30T22:28:36.786Z,56.10
2018-03-30T22:31:03.962Z,56.30
2018-03-30T22:33:30.432Z,56.30
2018-03-30T22:35:57.176Z,56.30
2018-03-30T22:38:23.618Z,56.30
2018-03-30T22:40:50.137Z,56.50
2018-03-30T22:43:16.593Z,57.30
2018-03-30T22:45:43.064Z,57.50
2018-03-30T22:48:10.226Z,57.60
2018-03-30T22:50:37.425Z,57.30
2018-03-30T22:53:03.846Z,57.40
2018-03-30T22:55:30.294Z,57.60
2018-03-30T22:57:56.804Z,57.50
2018-03-30T23:00:23.313Z,57.60
2018-03-30T23:02:50.520Z,57.90
2018-03-30T23:05:17.008Z,57.90
2018-03-30T23:07:44.234Z,58.00
2018-03-30T23:10:10.695Z,58.50
2018-03-30T23:12:37.895Z,58.30
2018-03-30T23:15:04.369Z,58.40
2018-03-30T23:17:31.584Z,59.00
2018-03-30T23:19:58.054Z,58.70
2018-03-30T23:22:24.665Z,58.70
2018-03-30T23:24:51.205Z,58.70
2018-03-30T23:27:17.742Z,58.70
2018-03-30T23:29:44.283Z,59.00
2018-03-30T23:32:10.790Z,58.90
2018-03-30T23:34:37.352Z,58.70
2018-03-30T23:37:03.994Z,58.90
2018-03-30T23:39:30.632Z,59.10
2018-03-30T23:41:57.274Z,58.90
2018-03-30T23:44:24.603Z,59.40
2018-03-30T23:46:51.268Z,59.30
2018-03-30T23:49:17.808Z,59.40
2018-03-30T23:51:44.445Z,59.40
2018-03-30T23:54:11.087Z,59.30
2018-03-30T23:56:37.625Z,59.30
2018-03-30T23:59:04.262Z,59.80
